Barnardsville, North Carolina
Current Conditions -  °F | °C
As of 7:27 AM on Monday 26 Jan 2015 (Local Time) from KAVL Reporting Station
Light Rain Light Rain  
Wind Chill: 32°   Ceiling: 3100
Heat Index: 38°   Visibility: 10mi
Dew Point: 33°   Wind: 8mph
Humidity: 83%   Direction: 340°NNW
Pressure: 29.65"   Gusts: NA
Location:  35.78°N, 82.45°W
Report Text: KAVL 261227Z 34007KT 10SM -RA FEW025 BKN031 OVC060 03/01 A2965 RMK AO2 RAB06 P0001 T00330006
Loading
Personal Weather Stations






























Interactive Weather Map New forecast layout! Learn more

10-Day Weather Forecast

Advertisements
Track Severe Weather on mobile